Union Gap, WA

4:59 PM PDT on March 29, 2015 (GMT -0700)
Terrace Heights | | Change Station
CLOSE
Current Station
Personal Weather Station
Location: Yakima, WA
Elevation: 1102 ft
Nearby Weather Stations

Elev 1102 ft 46.61 °N, 120.45 °W | Updated 6 seconds ago

Partly Cloudy
Partly Cloudy
68.4 °F
Feels Like 68.4 °F
N
7.8
Wind Variable Wind from WSW
Gusts 13.9 mph

Today
High -- | Low -- °F
--% Chance of Precip.
Yesterday
High -- | Low -- °F
Precip. -- in
6:47 AM 7:26 PM
Waxing Gibbous, 75% visible
Pressure 30.13 in
Visibility 10.0 miles
Clouds Scattered Clouds 7000 ft
Dew Point 34 °F
Humidity 28%
Rainfall 0.00 in
Snow Depth Not available.
UV 2 out of 12
Pollen 9.70 out of 12
Air Quality Not available.
Flu Activity Not available.
METAR KYKM 292353Z 14003KT 10SM SCT070 20/03 A3013 RMK AO2 SLP202 T02000033 10211 20133 56018

More Conditions Fewer Conditions

Pressure 30.13 in
Visibility 10.0 miles
Clouds Scattered Clouds 7000 ft
Dew Point 34 °F
Humidity 28%
Rainfall 0.00 in
Snow Depth Not available.
UV 2 out of 12
Pollen 9.70 out of 12
Air Quality Not available.
Flu Activity Not available.
METAR KYKM 292353Z 14003KT 10SM SCT070 20/03 A3013 RMK AO2 SLP202 T02000033 10211 20133 56018

More Conditions Fewer Conditions

10-Day Weather Forecast

Almanac

Astronomy

Mar. 29, 2015 Rise Set
Actual Time
Civil Twilight
Nautical Twilight
Astronomical Twilight
Moon
Length of Visible Light
Length of Day
Tomorrow will be .
, % of the Moon is Illuminated

Today's Extremes

State Highs State Lows

Community

WunderPhotos

Upload Photos

1,809,380 photos uploaded!

WunderBlogs® & News

Nearby

Air Quality

  Air Quality AQ Index Pollutant
Not available.

Snow Depth

Station Depth Elevation

Earthquake Activity

City Distance Mag. Time & Date
Minimum magnitude displayed is 2.5.

Coastal Water Temperatures

Place Temperature

Stations

Nearby Weather Stations

Station Location Temp. Windchill Dew Point Humidity Wind Precip. Elev Updated Type